sensor_id;sensor_type;location;lat;lon;timestamp;temperature;humidity
74484;SHT31;62942;52.462;10.846;2023-04-24T00:00:23;13.1;76.2
74484;SHT31;62942;52.462;10.846;2023-04-24T00:01:23;13.1;76.2
74484;SHT31;62942;52.462;10.846;2023-04-24T00:02:33;13.1;76.2
74484;SHT31;62942;52.462;10.846;2023-04-24T00:03:43;13.1;76.2
74484;SHT31;62942;52.462;10.846;2023-04-24T00:04:43;13.1;76.2
74484;SHT31;62942;52.462;10.846;2023-04-24T00:05:53;13.1;76.1
74484;SHT31;62942;52.462;10.846;2023-04-24T00:07:03;13.2;76.1
74484;SHT31;62942;52.462;10.846;2023-04-24T00:08:03;13.1;75.9
74484;SHT31;62942;52.462;10.846;2023-04-24T00:09:13;13.1;75.8
74484;SHT31;62942;52.462;10.846;2023-04-24T00:10:23;13.2;75.8
74484;SHT31;62942;52.462;10.846;2023-04-24T00:11:23;13.2;75.7
74484;SHT31;62942;52.462;10.846;2023-04-24T00:12:33;13.1;75.7
74484;SHT31;62942;52.462;10.846;2023-04-24T00:13:43;13.2;75.5
74484;SHT31;62942;52.462;10.846;2023-04-24T00:14:43;13.2;75.5
74484;SHT31;62942;52.462;10.846;2023-04-24T00:15:43;13.2;75.4
74484;SHT31;62942;52.462;10.846;2023-04-24T00:16:53;13.2;75.2
74484;SHT31;62942;52.462;10.846;2023-04-24T00:18:03;13.2;75.1
74484;SHT31;62942;52.462;10.846;2023-04-24T00:19:03;13.3;74.9
74484;SHT31;62942;52.462;10.846;2023-04-24T00:20:13;13.3;74.8
74484;SHT31;62942;52.462;10.846;2023-04-24T00:21:23;13.3;74.7
74484;SHT31;62942;52.462;10.846;2023-04-24T00:22:23;13.3;74.6
74484;SHT31;62942;52.462;10.846;2023-04-24T00:23:33;13.3;74.5
74484;SHT31;62942;52.462;10.846;2023-04-24T00:24:33;13.3;74.5
74484;SHT31;62942;52.462;10.846;2023-04-24T00:25:43;13.4;74.5
74484;SHT31;62942;52.462;10.846;2023-04-24T00:26:53;13.3;74.4
74484;SHT31;62942;52.462;10.846;2023-04-24T00:27:53;13.3;74.4
74484;SHT31;62942;52.462;10.846;2023-04-24T00:29:03;13.3;74.4
74484;SHT31;62942;52.462;10.846;2023-04-24T00:30:03;13.3;74.4
74484;SHT31;62942;52.462;10.846;2023-04-24T00:31:13;13.3;74.4
74484;SHT31;62942;52.462;10.846;2023-04-24T00:32:13;13.3;74.4
74484;SHT31;62942;52.462;10.846;2023-04-24T00:33:23;13.3;74.5
74484;SHT31;62942;52.462;10.846;2023-04-24T00:34:23;13.3;74.7
74484;SHT31;62942;52.462;10.846;2023-04-24T00:35:33;13.2;74.6
74484;SHT31;62942;52.462;10.846;2023-04-24T00:36:33;13.2;74.7
74484;SHT31;62942;52.462;10.846;2023-04-24T00:37:43;13.2;74.7
74484;SHT31;62942;52.462;10.846;2023-04-24T00:38:43;13.1;74.8
74484;SHT31;62942;52.462;10.846;2023-04-24T00:39:43;13.1;74.9
74484;SHT31;62942;52.462;10.846;2023-04-24T00:40:53;13.1;75
74484;SHT31;62942;52.462;10.846;2023-04-24T00:42:03;13;75.1
74484;SHT31;62942;52.462;10.846;2023-04-24T00:43:03;13;75.1
74484;SHT31;62942;52.462;10.846;2023-04-24T00:44:13;13;75.2
74484;SHT31;62942;52.462;10.846;2023-04-24T00:45:13;13;75.3
74484;SHT31;62942;52.462;10.846;2023-04-24T00:46:23;12.9;75.6
74484;SHT31;62942;52.462;10.846;2023-04-24T00:47:33;12.9;75.6
74484;SHT31;62942;52.462;10.846;2023-04-24T00:48:43;12.8;75.8
74484;SHT31;62942;52.462;10.846;2023-04-24T00:49:43;12.8;75.9
74484;SHT31;62942;52.462;10.846;2023-04-24T00:50:53;12.8;76
74484;SHT31;62942;52.462;10.846;2023-04-24T00:52:03;12.7;76.2
74484;SHT31;62942;52.462;10.846;2023-04-24T00:53:03;12.7;76.5
74484;SHT31;62942;52.462;10.846;2023-04-24T00:54:13;12.6;76.6
74484;SHT31;62942;52.462;10.846;2023-04-24T00:55:23;12.6;76.6
74484;SHT31;62942;52.462;10.846;2023-04-24T00:56:33;12.6;76.7
74484;SHT31;62942;52.462;10.846;2023-04-24T00:57:43;12.6;76.8
74484;SHT31;62942;52.462;10.846;2023-04-24T00:58:53;12.5;76.9
74484;SHT31;62942;52.462;10.846;2023-04-24T00:59:53;12.5;77
74484;SHT31;62942;52.462;10.846;2023-04-24T01:01:03;12.5;77.1
74484;SHT31;62942;52.462;10.846;2023-04-24T01:02:13;12.5;77.1
74484;SHT31;62942;52.462;10.846;2023-04-24T01:03:13;12.4;77.1
74484;SHT31;62942;52.462;10.846;2023-04-24T01:04:13;12.4;77.2
74484;SHT31;62942;52.462;10.846;2023-04-24T01:05:23;12.4;77.3
74484;SHT31;62942;52.462;10.846;2023-04-24T01:06:33;12.4;77.5
74484;SHT31;62942;52.462;10.846;2023-04-24T01:07:44;12.3;77.6
74484;SHT31;62942;52.462;10.846;2023-04-24T01:08:53;12.3;77.7
74484;SHT31;62942;52.462;10.846;2023-04-24T01:09:53;12.2;77.8
74484;SHT31;62942;52.462;10.846;2023-04-24T01:11:03;12.2;77.9
74484;SHT31;62942;52.462;10.846;2023-04-24T01:12:13;12.2;78.1
74484;SHT31;62942;52.462;10.846;2023-04-24T01:13:13;12.1;78.2
74484;SHT31;62942;52.462;10.846;2023-04-24T01:14:23;12.1;78.1
74484;SHT31;62942;52.462;10.846;2023-04-24T01:15:33;12.1;78.3
74484;SHT31;62942;52.462;10.846;2023-04-24T01:16:33;12;78.4
74484;SHT31;62942;52.462;10.846;2023-04-24T01:17:43;12;78.6
74484;SHT31;62942;52.462;10.846;2023-04-24T01:18:53;11.9;78.7
74484;SHT31;62942;52.462;10.846;2023-04-24T01:19:53;11.9;78.9
74484;SHT31;62942;52.462;10.846;2023-04-24T01:21:03;11.9;79.1
74484;SHT31;62942;52.462;10.846;2023-04-24T01:22:13;11.8;79.2
74484;SHT31;62942;52.462;10.846;2023-04-24T01:23:23;11.8;79.5
74484;SHT31;62942;52.462;10.846;2023-04-24T01:24:23;11.8;79.5
74484;SHT31;62942;52.462;10.846;2023-04-24T01:25:33;11.8;79.4
74484;SHT31;62942;52.462;10.846;2023-04-24T01:26:43;11.8;79.4
74484;SHT31;62942;52.462;10.846;2023-04-24T01:27:43;11.8;79.4
74484;SHT31;62942;52.462;10.846;2023-04-24T01:28:53;11.7;79.5
74484;SHT31;62942;52.462;10.846;2023-04-24T01:30:03;11.7;79.8
74484;SHT31;62942;52.462;10.846;2023-04-24T01:31:03;11.7;79.8
74484;SHT31;62942;52.462;10.846;2023-04-24T01:32:13;11.7;79.8
74484;SHT31;62942;52.462;10.846;2023-04-24T01:33:23;11.7;80
74484;SHT31;62942;52.462;10.846;2023-04-24T01:34:33;11.7;80
74484;SHT31;62942;52.462;10.846;2023-04-24T01:35:33;11.7;80
74484;SHT31;62942;52.462;10.846;2023-04-24T01:36:43;11.6;80.2
74484;SHT31;62942;52.462;10.846;2023-04-24T01:37:53;11.7;80.3
74484;SHT31;62942;52.462;10.846;2023-04-24T01:39:03;11.7;80.5
74484;SHT31;62942;52.462;10.846;2023-04-24T01:40:13;11.7;80.3
74484;SHT31;62942;52.462;10.846;2023-04-24T01:41:23;11.7;80.3
74484;SHT31;62942;52.462;10.846;2023-04-24T01:42:23;11.6;80.4
74484;SHT31;62942;52.462;10.846;2023-04-24T01:43:23;11.6;80.5
74484;SHT31;62942;52.462;10.846;2023-04-24T01:44:33;11.7;80.4
74484;SHT31;62942;52.462;10.846;2023-04-24T01:45:43;11.7;80.4
74484;SHT31;62942;52.462;10.846;2023-04-24T01:46:53;11.6;80.4
74484;SHT31;62942;52.462;10.846;2023-04-24T01:47:53;11.6;80.5
74484;SHT31;62942;52.462;10.846;2023-04-24T01:49:04;11.7;80.4
74484;SHT31;62942;52.462;10.846;2023-04-24T01:50:13;11.7;80.5
74484;SHT31;62942;52.462;10.846;2023-04-24T01:51:22;11.7;80.4
74484;SHT31;62942;52.462;10.846;2023-04-24T01:52:23;11.7;80.3
74484;SHT31;62942;52.462;10.846;2023-04-24T01:53:23;11.7;80.2
74484;SHT31;62942;52.462;10.846;2023-04-24T01:54:33;11.7;80.1
74484;SHT31;62942;52.462;10.846;2023-04-24T01:55:33;11.7;80.1
74484;SHT31;62942;52.462;10.846;2023-04-24T01:56:43;11.7;80.3
74484;SHT31;62942;52.462;10.846;2023-04-24T01:57:43;11.7;80.2
74484;SHT31;62942;52.462;10.846;2023-04-24T01:58:43;11.7;80.2
74484;SHT31;62942;52.462;10.846;2023-04-24T01:59:53;11.7;80.2
74484;SHT31;62942;52.462;10.846;2023-04-24T02:00:53;11.7;80.4
74484;SHT31;62942;52.462;10.846;2023-04-24T02:02:03;11.7;80.4
74484;SHT31;62942;52.462;10.846;2023-04-24T02:03:03;11.7;80.5
74484;SHT31;62942;52.462;10.846;2023-04-24T02:04:13;11.7;80.4
74484;SHT31;62942;52.462;10.846;2023-04-24T02:05:23;11.6;80.3
74484;SHT31;62942;52.462;10.846;2023-04-24T02:06:33;11.6;80.3
74484;SHT31;62942;52.462;10.846;2023-04-24T02:07:43;11.6;80.6
74484;SHT31;62942;52.462;10.846;2023-04-24T02:08:53;11.6;80.7
74484;SHT31;62942;52.462;10.846;2023-04-24T02:10:03;11.5;80.7
74484;SHT31;62942;52.462;10.846;2023-04-24T02:11:03;11.6;80.8
74484;SHT31;62942;52.462;10.846;2023-04-24T02:12:13;11.5;80.8
74484;SHT31;62942;52.462;10.846;2023-04-24T02:13:22;11.5;80.9
74484;SHT31;62942;52.462;10.846;2023-04-24T02:14:33;11.6;80.9
74484;SHT31;62942;52.462;10.846;2023-04-24T02:15:43;11.6;80.8
74484;SHT31;62942;52.462;10.846;2023-04-24T02:16:53;11.6;80.7
74484;SHT31;62942;52.462;10.846;2023-04-24T02:18:03;11.5;80.8
74484;SHT31;62942;52.462;10.846;2023-04-24T02:19:03;11.6;80.8
74484;SHT31;62942;52.462;10.846;2023-04-24T02:20:12;11.5;80.8
74484;SHT31;62942;52.462;10.846;2023-04-24T02:21:12;11.5;80.8
74484;SHT31;62942;52.462;10.846;2023-04-24T02:22:23;11.5;80.8
74484;SHT31;62942;52.462;10.846;2023-04-24T02:23:32;11.5;80.9
74484;SHT31;62942;52.462;10.846;2023-04-24T02:24:33;11.5;80.9
74484;SHT31;62942;52.462;10.846;2023-04-24T02:25:42;11.5;81
74484;SHT31;62942;52.462;10.846;2023-04-24T02:26:43;11.4;81
74484;SHT31;62942;52.462;10.846;2023-04-24T02:27:42;11.5;81.1
74484;SHT31;62942;52.462;10.846;2023-04-24T02:28:52;11.4;81.2
74484;SHT31;62942;52.462;10.846;2023-04-24T02:30:03;11.5;81.2
74484;SHT31;62942;52.462;10.846;2023-04-24T02:31:03;11.5;81.1
74484;SHT31;62942;52.462;10.846;2023-04-24T02:32:13;11.4;81.1
74484;SHT31;62942;52.462;10.846;2023-04-24T02:33:12;11.5;81.2
74484;SHT31;62942;52.462;10.846;2023-04-24T02:34:22;11.4;81.1
74484;SHT31;62942;52.462;10.846;2023-04-24T02:35:22;11.4;81.2
74484;SHT31;62942;52.462;10.846;2023-04-24T02:36:32;11.4;81.2
74484;SHT31;62942;52.462;10.846;2023-04-24T02:37:42;11.4;81.2
74484;SHT31;62942;52.462;10.846;2023-04-24T02:38:52;11.4;81.2
74484;SHT31;62942;52.462;10.846;2023-04-24T02:40:03;11.4;81.3
74484;SHT31;62942;52.462;10.846;2023-04-24T02:41:12;11.4;81.4
74484;SHT31;62942;52.462;10.846;2023-04-24T02:42:22;11.4;81.3
74484;SHT31;62942;52.462;10.846;2023-04-24T02:43:32;11.4;81.3
74484;SHT31;62942;52.462;10.846;2023-04-24T02:44:42;11.4;81.2
74484;SHT31;62942;52.462;10.846;2023-04-24T02:45:52;11.4;81.3
74484;SHT31;62942;52.462;10.846;2023-04-24T02:47:02;11.5;81.1
74484;SHT31;62942;52.462;10.846;2023-04-24T02:48:13;11.5;81.1
74484;SHT31;62942;52.462;10.846;2023-04-24T02:49:22;11.5;81.1
74484;SHT31;62942;52.462;10.846;2023-04-24T02:50:32;11.5;81
74484;SHT31;62942;52.462;10.846;2023-04-24T02:51:43;11.5;81
74484;SHT31;62942;52.462;10.846;2023-04-24T02:52:52;11.4;81.1
74484;SHT31;62942;52.462;10.846;2023-04-24T02:54:03;11.4;81.1
74484;SHT31;62942;52.462;10.846;2023-04-24T02:55:13;11.4;81.1
74484;SHT31;62942;52.462;10.846;2023-04-24T02:56:22;11.4;81.3
74484;SHT31;62942;52.462;10.846;2023-04-24T02:57:22;11.3;81.2
74484;SHT31;62942;52.462;10.846;2023-04-24T02:58:32;11.3;81.3
74484;SHT31;62942;52.462;10.846;2023-04-24T02:59:32;11.3;81.3
74484;SHT31;62942;52.462;10.846;2023-04-24T03:00:42;11.3;81.3
74484;SHT31;62942;52.462;10.846;2023-04-24T03:01:42;11.3;81.4
74484;SHT31;62942;52.462;10.846;2023-04-24T03:02:52;11.2;81.4
74484;SHT31;62942;52.462;10.846;2023-04-24T03:03:52;11.2;81.5
74484;SHT31;62942;52.462;10.846;2023-04-24T03:05:03;11.2;81.5
74484;SHT31;62942;52.462;10.846;2023-04-24T03:06:02;11.2;81.5
74484;SHT31;62942;52.462;10.846;2023-04-24T03:07:12;11.2;81.5
74484;SHT31;62942;52.462;10.846;2023-04-24T03:08:22;11.2;81.6
74484;SHT31;62942;52.462;10.846;2023-04-24T03:09:22;11.1;81.7
74484;SHT31;62942;52.462;10.846;2023-04-24T03:10:32;11.1;81.7
74484;SHT31;62942;52.462;10.846;2023-04-24T03:11:32;11.1;81.7
74484;SHT31;62942;52.462;10.846;2023-04-24T03:12:42;11.1;81.8
74484;SHT31;62942;52.462;10.846;2023-04-24T03:13:52;11;81.8
74484;SHT31;62942;52.462;10.846;2023-04-24T03:15:03;11;81.9
74484;SHT31;62942;52.462;10.846;2023-04-24T03:16:12;10.9;82
74484;SHT31;62942;52.462;10.846;2023-04-24T03:17:22;10.9;82.1
74484;SHT31;62942;52.462;10.846;2023-04-24T03:18:22;10.8;82.1
74484;SHT31;62942;52.462;10.846;2023-04-24T03:19:32;10.8;82.3
74484;SHT31;62942;52.462;10.846;2023-04-24T03:20:44;10.8;82.4
74484;SHT31;62942;52.462;10.846;2023-04-24T03:21:52;10.7;82.4
74484;SHT31;62942;52.462;10.846;2023-04-24T03:23:02;10.7;82.5
74484;SHT31;62942;52.462;10.846;2023-04-24T03:24:02;10.7;82.5
74484;SHT31;62942;52.462;10.846;2023-04-24T03:25:12;10.6;82.6
74484;SHT31;62942;52.462;10.846;2023-04-24T03:26:22;10.6;82.7
74484;SHT31;62942;52.462;10.846;2023-04-24T03:27:22;10.6;82.7
74484;SHT31;62942;52.462;10.846;2023-04-24T03:28:32;10.5;82.8
74484;SHT31;62942;52.462;10.846;2023-04-24T03:29:42;10.5;82.9
74484;SHT31;62942;52.462;10.846;2023-04-24T03:30:42;10.5;82.9
74484;SHT31;62942;52.462;10.846;2023-04-24T03:31:52;10.4;83.1
74484;SHT31;62942;52.462;10.846;2023-04-24T03:32:52;10.4;83.2
74484;SHT31;62942;52.462;10.846;2023-04-24T03:34:02;10.4;83.3
74484;SHT31;62942;52.462;10.846;2023-04-24T03:35:12;10.4;83.3
74484;SHT31;62942;52.462;10.846;2023-04-24T03:36:22;10.3;83.4
74484;SHT31;62942;52.462;10.846;2023-04-24T03:37:22;10.3;83.4
74484;SHT31;62942;52.462;10.846;2023-04-24T03:38:22;10.3;83.5
74484;SHT31;62942;52.462;10.846;2023-04-24T03:39:32;10.3;83.5
74484;SHT31;62942;52.462;10.846;2023-04-24T03:40:42;10.3;83.6
74484;SHT31;62942;52.462;10.846;2023-04-24T03:41:52;10.3;83.7
74484;SHT31;62942;52.462;10.846;2023-04-24T03:42:52;10.2;83.7
74484;SHT31;62942;52.462;10.846;2023-04-24T03:44:02;10.2;83.9
74484;SHT31;62942;52.462;10.846;2023-04-24T03:45:03;10.2;83.8
74484;SHT31;62942;52.462;10.846;2023-04-24T03:46:12;10.2;83.9
74484;SHT31;62942;52.462;10.846;2023-04-24T03:47:12;10.2;84.1
74484;SHT31;62942;52.462;10.846;2023-04-24T03:48:12;10.2;84.1
74484;SHT31;62942;52.462;10.846;2023-04-24T03:49:22;10.2;83.9
74484;SHT31;62942;52.462;10.846;2023-04-24T03:50:32;10.2;83.9
74484;SHT31;62942;52.462;10.846;2023-04-24T03:51:42;10.3;83.8
74484;SHT31;62942;52.462;10.846;2023-04-24T03:52:42;10.2;83.8
74484;SHT31;62942;52.462;10.846;2023-04-24T03:53:52;10.2;83.9
74484;SHT31;62942;52.462;10.846;2023-04-24T03:54:52;10.2;83.9
74484;SHT31;62942;52.462;10.846;2023-04-24T03:56:02;10.2;83.8
74484;SHT31;62942;52.462;10.846;2023-04-24T03:57:02;10.2;83.8
74484;SHT31;62942;52.462;10.846;2023-04-24T03:58:02;10.2;83.8
74484;SHT31;62942;52.462;10.846;2023-04-24T03:59:12;10.2;83.8
74484;SHT31;62942;52.462;10.846;2023-04-24T04:00:13;10.2;83.9
74484;SHT31;62942;52.462;10.846;2023-04-24T04:01:22;10.2;83.9
74484;SHT31;62942;52.462;10.846;2023-04-24T04:02:22;10.1;83.9
74484;SHT31;62942;52.462;10.846;2023-04-24T04:03:32;10.1;84
74484;SHT31;62942;52.462;10.846;2023-04-24T04:04:32;10.1;84
74484;SHT31;62942;52.462;10.846;2023-04-24T04:05:32;10.2;83.9
74484;SHT31;62942;52.462;10.846;2023-04-24T04:06:43;10.2;83.9
74484;SHT31;62942;52.462;10.846;2023-04-24T04:07:42;10.1;83.9
74484;SHT31;62942;52.462;10.846;2023-04-24T04:08:42;10.2;83.8
74484;SHT31;62942;52.462;10.846;2023-04-24T04:09:52;10.1;83.7
74484;SHT31;62942;52.462;10.846;2023-04-24T04:11:02;10.1;83.7
74484;SHT31;62942;52.462;10.846;2023-04-24T04:12:02;10.1;83.7
74484;SHT31;62942;52.462;10.846;2023-04-24T04:13:02;10.1;83.7
74484;SHT31;62942;52.462;10.846;2023-04-24T04:14:12;10.1;83.6
74484;SHT31;62942;52.462;10.846;2023-04-24T04:15:12;10.1;83.6
74484;SHT31;62942;52.462;10.846;2023-04-24T04:16:22;10.1;83.6
74484;SHT31;62942;52.462;10.846;2023-04-24T04:17:22;10.1;83.6
74484;SHT31;62942;52.462;10.846;2023-04-24T04:18:32;10.1;83.5
74484;SHT31;62942;52.462;10.846;2023-04-24T04:19:32;10.1;83.5
74484;SHT31;62942;52.462;10.846;2023-04-24T04:20:42;10;83.4
74484;SHT31;62942;52.462;10.846;2023-04-24T04:21:42;10;83.4
74484;SHT31;62942;52.462;10.846;2023-04-24T04:22:52;10;83.4
74484;SHT31;62942;52.462;10.846;2023-04-24T04:23:52;10;83.5
74484;SHT31;62942;52.462;10.846;2023-04-24T04:25:02;10;83.5
74484;SHT31;62942;52.462;10.846;2023-04-24T04:26:02;10;83.5
74484;SHT31;62942;52.462;10.846;2023-04-24T04:27:12;10;83.5
74484;SHT31;62942;52.462;10.846;2023-04-24T04:28:12;10;83.5
74484;SHT31;62942;52.462;10.846;2023-04-24T04:29:22;10;83.6
74484;SHT31;62942;52.462;10.846;2023-04-24T04:30:32;9.9;83.6
74484;SHT31;62942;52.462;10.846;2023-04-24T04:31:32;10;83.7
74484;SHT31;62942;52.462;10.846;2023-04-24T04:32:42;10;83.8
74484;SHT31;62942;52.462;10.846;2023-04-24T04:33:52;10;83.8
74484;SHT31;62942;52.462;10.846;2023-04-24T04:34:52;9.9;83.8
74484;SHT31;62942;52.462;10.846;2023-04-24T04:36:02;10;83.8
74484;SHT31;62942;52.462;10.846;2023-04-24T04:37:12;10;83.7
74484;SHT31;62942;52.462;10.846;2023-04-24T04:38:12;10;83.6
74484;SHT31;62942;52.462;10.846;2023-04-24T04:39:22;10;83.5
74484;SHT31;62942;52.462;10.846;2023-04-24T04:40:32;10;83.4
74484;SHT31;62942;52.462;10.846;2023-04-24T04:41:42;10.1;83.3
74484;SHT31;62942;52.462;10.846;2023-04-24T04:42:42;10.1;83.2
74484;SHT31;62942;52.462;10.846;2023-04-24T04:43:52;10.1;83.1
74484;SHT31;62942;52.462;10.846;2023-04-24T04:44:52;10.2;83
74484;SHT31;62942;52.462;10.846;2023-04-24T04:46:02;10.2;82.9
74484;SHT31;62942;52.462;10.846;2023-04-24T04:47:12;10.2;82.8
74484;SHT31;62942;52.462;10.846;2023-04-24T04:48:12;10.2;82.7
74484;SHT31;62942;52.462;10.846;2023-04-24T04:49:22;10.3;82.5
74484;SHT31;62942;52.462;10.846;2023-04-24T04:50:22;10.3;82.4
74484;SHT31;62942;52.462;10.846;2023-04-24T04:51:32;10.3;82.2
74484;SHT31;62942;52.462;10.846;2023-04-24T04:52:42;10.4;82
74484;SHT31;62942;52.462;10.846;2023-04-24T04:53:42;10.4;81.9
74484;SHT31;62942;52.462;10.846;2023-04-24T04:54:52;10.4;81.8
74484;SHT31;62942;52.462;10.846;2023-04-24T04:56:02;10.4;81.7
74484;SHT31;62942;52.462;10.846;2023-04-24T04:57:12;10.4;81.6
74484;SHT31;62942;52.462;10.846;2023-04-24T04:58:12;10.5;81.5
74484;SHT31;62942;52.462;10.846;2023-04-24T04:59:22;10.4;81.4
74484;SHT31;62942;52.462;10.846;2023-04-24T05:00:32;10.5;81.3
74484;SHT31;62942;52.462;10.846;2023-04-24T05:01:42;10.5;81.3
74484;SHT31;62942;52.462;10.846;2023-04-24T05:02:42;10.5;81.2
74484;SHT31;62942;52.462;10.846;2023-04-24T05:03:52;10.5;81.2
74484;SHT31;62942;52.462;10.846;2023-04-24T05:05:02;10.5;81.1
74484;SHT31;62942;52.462;10.846;2023-04-24T05:06:02;10.5;81.1
74484;SHT31;62942;52.462;10.846;2023-04-24T05:07:12;10.5;81
74484;SHT31;62942;52.462;10.846;2023-04-24T05:08:12;10.5;80.9
74484;SHT31;62942;52.462;10.846;2023-04-24T05:09:22;10.5;80.9
74484;SHT31;62942;52.462;10.846;2023-04-24T05:10:22;10.5;80.8
74484;SHT31;62942;52.462;10.846;2023-04-24T05:11:32;10.6;80.8
74484;SHT31;62942;52.462;10.846;2023-04-24T05:12:32;10.6;80.7
74484;SHT31;62942;52.462;10.846;2023-04-24T05:13:42;10.6;80.7
74484;SHT31;62942;52.462;10.846;2023-04-24T05:14:42;10.6;80.7
74484;SHT31;62942;52.462;10.846;2023-04-24T05:15:42;10.6;80.7
74484;SHT31;62942;52.462;10.846;2023-04-24T05:16:52;10.6;80.7
74484;SHT31;62942;52.462;10.846;2023-04-24T05:17:52;10.6;80.7
74484;SHT31;62942;52.462;10.846;2023-04-24T05:19:02;10.7;80.6
74484;SHT31;62942;52.462;10.846;2023-04-24T05:20:02;10.7;80.6
74484;SHT31;62942;52.462;10.846;2023-04-24T05:21:12;10.7;80.5
74484;SHT31;62942;52.462;10.846;2023-04-24T05:22:12;10.7;80.5
74484;SHT31;62942;52.462;10.846;2023-04-24T05:23:22;10.7;80.4
74484;SHT31;62942;52.462;10.846;2023-04-24T05:24:32;10.8;80.4
74484;SHT31;62942;52.462;10.846;2023-04-24T05:25:42;10.8;80.3
74484;SHT31;62942;52.462;10.846;2023-04-24T05:26:42;10.7;80.2
74484;SHT31;62942;52.462;10.846;2023-04-24T05:27:52;10.8;80.2
74484;SHT31;62942;52.462;10.846;2023-04-24T05:29:02;10.8;80.1
74484;SHT31;62942;52.462;10.846;2023-04-24T05:30:12;10.8;80.1
74484;SHT31;62942;52.462;10.846;2023-04-24T05:31:12;10.9;80
74484;SHT31;62942;52.462;10.846;2023-04-24T05:32:22;10.9;79.9
74484;SHT31;62942;52.462;10.846;2023-04-24T05:33:32;10.9;79.9
74484;SHT31;62942;52.462;10.846;2023-04-24T05:34:42;11;79.8
74484;SHT31;62942;52.462;10.846;2023-04-24T05:35:52;11;79.8
74484;SHT31;62942;52.462;10.846;2023-04-24T05:36:52;11.1;79.7
74484;SHT31;62942;52.462;10.846;2023-04-24T05:38:02;11.1;79.6
74484;SHT31;62942;52.462;10.846;2023-04-24T05:39:12;11.2;79.5
74484;SHT31;62942;52.462;10.846;2023-04-24T05:40:22;11.2;79.4
74484;SHT31;62942;52.462;10.846;2023-04-24T05:41:32;11.3;79.2
74484;SHT31;62942;52.462;10.846;2023-04-24T05:42:42;11.3;79.1
74484;SHT31;62942;52.462;10.846;2023-04-24T05:43:52;11.4;79
74484;SHT31;62942;52.462;10.846;2023-04-24T05:45:02;11.4;78.9
74484;SHT31;62942;52.462;10.846;2023-04-24T05:46:12;11.4;78.9
74484;SHT31;62942;52.462;10.846;2023-04-24T05:47:12;11.5;78.8
74484;SHT31;62942;52.462;10.846;2023-04-24T05:48:12;11.5;78.7
74484;SHT31;62942;52.462;10.846;2023-04-24T05:49:22;11.6;78.6
74484;SHT31;62942;52.462;10.846;2023-04-24T05:50:22;11.6;78.5
74484;SHT31;62942;52.462;10.846;2023-04-24T05:51:32;11.7;78.4
74484;SHT31;62942;52.462;10.846;2023-04-24T05:52:42;11.7;78.2
74484;SHT31;62942;52.462;10.846;2023-04-24T05:53:52;11.8;78.1
74484;SHT31;62942;52.462;10.846;2023-04-24T05:54:52;11.8;78
74484;SHT31;62942;52.462;10.846;2023-04-24T05:56:02;11.8;77.7
74484;SHT31;62942;52.462;10.846;2023-04-24T05:57:12;11.9;77.6
74484;SHT31;62942;52.462;10.846;2023-04-24T05:58:22;11.9;77.5
74484;SHT31;62942;52.462;10.846;2023-04-24T05:59:22;12;77.5
74484;SHT31;62942;52.462;10.846;2023-04-24T06:00:32;12;77.5
74484;SHT31;62942;52.462;10.846;2023-04-24T06:01:42;12.1;77.3
74484;SHT31;62942;52.462;10.846;2023-04-24T06:02:52;12.1;77.1
74484;SHT31;62942;52.462;10.846;2023-04-24T06:03:52;12.1;77
74484;SHT31;62942;52.462;10.846;2023-04-24T06:05:02;12.2;76.9
74484;SHT31;62942;52.462;10.846;2023-04-24T06:06:12;12.2;76.7
74484;SHT31;62942;52.462;10.846;2023-04-24T06:07:12;12.3;76.5
74484;SHT31;62942;52.462;10.846;2023-04-24T06:08:22;12.3;76.4
74484;SHT31;62942;52.462;10.846;2023-04-24T06:09:32;12.3;76.2
74484;SHT31;62942;52.462;10.846;2023-04-24T06:10:32;12.3;76
74484;SHT31;62942;52.462;10.846;2023-04-24T06:11:42;12.3;76
74484;SHT31;62942;52.462;10.846;2023-04-24T06:12:42;12.3;76
74484;SHT31;62942;52.462;10.846;2023-04-24T06:13:52;12.3;76
74484;SHT31;62942;52.462;10.846;2023-04-24T06:15:02;12.3;75.8
74484;SHT31;62942;52.462;10.846;2023-04-24T06:16:12;12.4;75.6
74484;SHT31;62942;52.462;10.846;2023-04-24T06:17:12;12.4;75.5
74484;SHT31;62942;52.462;10.846;2023-04-24T06:18:22;12.5;75.3
74484;SHT31;62942;52.462;10.846;2023-04-24T06:19:22;12.7;75.3
74484;SHT31;62942;52.462;10.846;2023-04-24T06:20:32;12.8;74.8
74484;SHT31;62942;52.462;10.846;2023-04-24T06:21:42;12.9;74.1
74484;SHT31;62942;52.462;10.846;2023-04-24T06:22:52;12.9;74.2
74484;SHT31;62942;52.462;10.846;2023-04-24T06:24:02;12.9;73.9
74484;SHT31;62942;52.462;10.846;2023-04-24T06:25:12;12.9;73.8
74484;SHT31;62942;52.462;10.846;2023-04-24T06:26:22;12.9;73.6
74484;SHT31;62942;52.462;10.846;2023-04-24T06:27:32;12.9;73.7
74484;SHT31;62942;52.462;10.846;2023-04-24T06:28:42;13.1;73.7
74484;SHT31;62942;52.462;10.846;2023-04-24T06:29:42;13.2;73.5
74484;SHT31;62942;52.462;10.846;2023-04-24T06:30:52;13.3;73.1
74484;SHT31;62942;52.462;10.846;2023-04-24T06:31:52;13.6;72.6
74484;SHT31;62942;52.462;10.846;2023-04-24T06:32:52;13.8;72.1
74484;SHT31;62942;52.462;10.846;2023-04-24T06:34:02;14.2;71.4
74484;SHT31;62942;52.462;10.846;2023-04-24T06:35:12;14.5;70.2
74484;SHT31;62942;52.462;10.846;2023-04-24T06:36:22;14.8;69.2
74484;SHT31;62942;52.462;10.846;2023-04-24T06:37:32;15.1;68.4
74484;SHT31;62942;52.462;10.846;2023-04-24T06:38:42;15.4;67.7
74484;SHT31;62942;52.462;10.846;2023-04-24T06:39:52;15.6;66.9
74484;SHT31;62942;52.462;10.846;2023-04-24T06:41:02;15.8;66.1
74484;SHT31;62942;52.462;10.846;2023-04-24T06:42:12;16;65.6
74484;SHT31;62942;52.462;10.846;2023-04-24T06:43:22;16.1;64.7
74484;SHT31;62942;52.462;10.846;2023-04-24T06:44:32;16.3;64.4
74484;SHT31;62942;52.462;10.846;2023-04-24T06:45:32;16.4;64.4
74484;SHT31;62942;52.462;10.846;2023-04-24T06:46:42;16.5;63.6
74484;SHT31;62942;52.462;10.846;2023-04-24T06:47:52;16.5;63.6
74484;SHT31;62942;52.462;10.846;2023-04-24T06:48:52;16.5;63.6
74484;SHT31;62942;52.462;10.846;2023-04-24T06:49:52;16.4;63
74484;SHT31;62942;52.462;10.846;2023-04-24T06:51:02;16.3;63.5
74484;SHT31;62942;52.462;10.846;2023-04-24T06:52:12;16.2;63.6
74484;SHT31;62942;52.462;10.846;2023-04-24T06:53:22;16;64
74484;SHT31;62942;52.462;10.846;2023-04-24T06:54:22;15.9;64.4
74484;SHT31;62942;52.462;10.846;2023-04-24T06:55:32;15.8;64.2
74484;SHT31;62942;52.462;10.846;2023-04-24T06:56:32;15.7;64.8
74484;SHT31;62942;52.462;10.846;2023-04-24T06:57:43;15.6;65.2
74484;SHT31;62942;52.462;10.846;2023-04-24T06:58:42;15.6;65.3
74484;SHT31;62942;52.462;10.846;2023-04-24T06:59:52;15.4;65.7
74484;SHT31;62942;52.462;10.846;2023-04-24T07:00:52;15.4;66
74484;SHT31;62942;52.462;10.846;2023-04-24T07:01:52;15.4;65.9
74484;SHT31;62942;52.462;10.846;2023-04-24T07:03:02;15.2;65.8
74484;SHT31;62942;52.462;10.846;2023-04-24T07:04:02;15.1;66.3
74484;SHT31;62942;52.462;10.846;2023-04-24T07:05:12;15;66.5
74484;SHT31;62942;52.462;10.846;2023-04-24T07:06:22;14.9;67.2
74484;SHT31;62942;52.462;10.846;2023-04-24T07:07:22;14.7;67.4
74484;SHT31;62942;52.462;10.846;2023-04-24T07:08:32;14.6;67.4